sensor_id;sensor_type;location;lat;lon;timestamp;pressure;altitude;pressure_sealevel;temperature;humidity
70544;BME280;58097;48.364;-1.224;2024-02-26T00:01:36;96661.44;;;8.32;100.00
70544;BME280;58097;48.364;-1.224;2024-02-26T00:04:01;96660.81;;;8.30;100.00
70544;BME280;58097;48.364;-1.224;2024-02-26T00:06:28;96665.25;;;8.31;100.00
70544;BME280;58097;48.364;-1.224;2024-02-26T00:08:54;96665.50;;;8.30;100.00
70544;BME280;58097;48.364;-1.224;2024-02-26T00:11:19;96666.94;;;8.32;100.00
70544;BME280;58097;48.364;-1.224;2024-02-26T00:13:44;96666.56;;;8.29;100.00
70544;BME280;58097;48.364;-1.224;2024-02-26T00:16:09;96669.69;;;8.32;100.00
70544;BME280;58097;48.364;-1.224;2024-02-26T00:18:35;96662.50;;;8.31;100.00
70544;BME280;58097;48.364;-1.224;2024-02-26T00:21:00;96665.09;;;8.26;100.00
70544;BME280;58097;48.364;-1.224;2024-02-26T00:23:26;96659.59;;;8.26;100.00
70544;BME280;58097;48.364;-1.224;2024-02-26T00:25:52;96676.72;;;8.28;100.00
70544;BME280;58097;48.364;-1.224;2024-02-26T00:28:17;96666.78;;;8.27;100.00
70544;BME280;58097;48.364;-1.224;2024-02-26T00:30:45;96668.91;;;8.25;100.00
70544;BME280;58097;48.364;-1.224;2024-02-26T00:33:10;96674.41;;;8.25;100.00
70544;BME280;58097;48.364;-1.224;2024-02-26T00:35:35;96673.81;;;8.23;100.00
70544;BME280;58097;48.364;-1.224;2024-02-26T00:38:01;96683.13;;;8.22;100.00
70544;BME280;58097;48.364;-1.224;2024-02-26T00:40:28;96682.28;;;8.22;100.00
70544;BME280;58097;48.364;-1.224;2024-02-26T00:42:53;96692.66;;;8.20;100.00
70544;BME280;58097;48.364;-1.224;2024-02-26T00:45:19;96689.06;;;8.19;100.00
70544;BME280;58097;48.364;-1.224;2024-02-26T00:47:44;96690.16;;;8.18;100.00
70544;BME280;58097;48.364;-1.224;2024-02-26T00:50:10;96689.06;;;8.19;100.00
70544;BME280;58097;48.364;-1.224;2024-02-26T00:52:36;96693.75;;;8.19;100.00
70544;BME280;58097;48.364;-1.224;2024-02-26T00:55:02;96699.22;;;8.19;100.00
70544;BME280;58097;48.364;-1.224;2024-02-26T00:57:27;96690.75;;;8.20;100.00
70544;BME280;58097;48.364;-1.224;2024-02-26T00:59:53;96695.41;;;8.20;100.00
70544;BME280;58097;48.364;-1.224;2024-02-26T01:02:20;96699.91;;;8.14;100.00
70544;BME280;58097;48.364;-1.224;2024-02-26T01:04:45;96703.50;;;8.15;100.00
70544;BME280;58097;48.364;-1.224;2024-02-26T01:07:11;96698.84;;;8.15;100.00
70544;BME280;58097;48.364;-1.224;2024-02-26T01:09:36;96697.78;;;8.16;100.00
70544;BME280;58097;48.364;-1.224;2024-02-26T01:12:01;96699.69;;;8.16;100.00
70544;BME280;58097;48.364;-1.224;2024-02-26T01:14:28;96705.19;;;8.16;100.00
70544;BME280;58097;48.364;-1.224;2024-02-26T01:16:53;96705.19;;;8.16;100.00
70544;BME280;58097;48.364;-1.224;2024-02-26T01:19:18;96709.63;;;8.17;100.00
70544;BME280;58097;48.364;-1.224;2024-02-26T01:21:44;96714.06;;;8.18;100.00
70544;BME280;58097;48.364;-1.224;2024-02-26T01:24:09;96719.78;;;8.16;100.00
70544;BME280;58097;48.364;-1.224;2024-02-26T01:26:35;96726.97;;;8.17;100.00
70544;BME280;58097;48.364;-1.224;2024-02-26T01:29:00;96725.06;;;8.18;100.00
70544;BME280;58097;48.364;-1.224;2024-02-26T01:31:25;96729.09;;;8.15;100.00
70544;BME280;58097;48.364;-1.224;2024-02-26T01:33:51;96728.47;;;8.13;100.00
70544;BME280;58097;48.364;-1.224;2024-02-26T01:36:16;96728.09;;;8.10;100.00
70544;BME280;58097;48.364;-1.224;2024-02-26T01:38:41;96732.09;;;8.07;100.00
70544;BME280;58097;48.364;-1.224;2024-02-26T01:41:07;96733.16;;;8.06;100.00
70544;BME280;58097;48.364;-1.224;2024-02-26T01:43:32;96739.50;;;8.06;100.00
70544;BME280;58097;48.364;-1.224;2024-02-26T01:45:58;96738.66;;;8.06;100.00
70544;BME280;58097;48.364;-1.224;2024-02-26T01:48:24;96745.44;;;8.10;100.00
70544;BME280;58097;48.364;-1.224;2024-02-26T01:50:49;96749.22;;;8.09;100.00
70544;BME280;58097;48.364;-1.224;2024-02-26T01:53:16;96751.97;;;8.09;100.00
70544;BME280;58097;48.364;-1.224;2024-02-26T01:55:42;96756.84;;;8.07;100.00
70544;BME280;58097;48.364;-1.224;2024-02-26T01:58:08;96754.09;;;8.07;100.00
70544;BME280;58097;48.364;-1.224;2024-02-26T02:00:34;96760.88;;;8.04;100.00
70544;BME280;58097;48.364;-1.224;2024-02-26T02:03:01;96757.28;;;8.04;100.00
70544;BME280;58097;48.364;-1.224;2024-02-26T02:05:28;96757.28;;;8.04;100.00
70544;BME280;58097;48.364;-1.224;2024-02-26T02:07:54;96763.84;;;8.03;100.00
70544;BME280;58097;48.364;-1.224;2024-02-26T02:10:19;96758.34;;;8.03;100.00
70544;BME280;58097;48.364;-1.224;2024-02-26T02:12:48;96761.50;;;8.06;100.00
70544;BME280;58097;48.364;-1.224;2024-02-26T02:15:13;96765.09;;;8.07;100.00
70544;BME280;58097;48.364;-1.224;2024-02-26T02:17:39;96769.53;;;8.08;100.00
70544;BME280;58097;48.364;-1.224;2024-02-26T02:20:08;96768.69;;;8.07;100.00
70544;BME280;58097;48.364;-1.224;2024-02-26T02:22:34;96773.13;;;8.08;100.00
70544;BME280;58097;48.364;-1.224;2024-02-26T02:24:59;96776.72;;;8.09;100.00
70544;BME280;58097;48.364;-1.224;2024-02-26T02:27:25;96773.34;;;8.07;100.00
70544;BME280;58097;48.364;-1.224;2024-02-26T02:29:51;96778.00;;;8.06;100.00
70544;BME280;58097;48.364;-1.224;2024-02-26T02:32:17;96773.56;;;8.05;100.00
70544;BME280;58097;48.364;-1.224;2024-02-26T02:34:44;96778.84;;;8.07;100.00
70544;BME280;58097;48.364;-1.224;2024-02-26T02:37:10;96776.31;;;8.05;100.00
70544;BME280;58097;48.364;-1.224;2024-02-26T02:39:36;96779.75;;;8.01;100.00
70544;BME280;58097;48.364;-1.224;2024-02-26T02:42:01;96783.31;;;8.01;100.00
70544;BME280;58097;48.364;-1.224;2024-02-26T02:44:26;96786.06;;;8.01;100.00
70544;BME280;58097;48.364;-1.224;2024-02-26T02:46:52;96787.53;;;8.04;100.00
70544;BME280;58097;48.364;-1.224;2024-02-26T02:49:18;96790.06;;;8.05;100.00
70544;BME280;58097;48.364;-1.224;2024-02-26T02:51:43;96787.72;;;8.09;100.00
70544;BME280;58097;48.364;-1.224;2024-02-26T02:54:09;96794.72;;;8.12;100.00
70544;BME280;58097;48.364;-1.224;2024-02-26T02:56:34;96790.06;;;8.12;100.00
70544;BME280;58097;48.364;-1.224;2024-02-26T02:59:01;96799.97;;;8.13;100.00
70544;BME280;58097;48.364;-1.224;2024-02-26T03:01:26;96793.41;;;8.14;100.00
70544;BME280;58097;48.364;-1.224;2024-02-26T03:03:52;96799.97;;;8.13;100.00
70544;BME280;58097;48.364;-1.224;2024-02-26T03:06:17;96803.56;;;8.14;100.00
70544;BME280;58097;48.364;-1.224;2024-02-26T03:08:42;96804.41;;;8.14;100.00
70544;BME280;58097;48.364;-1.224;2024-02-26T03:11:13;96812.91;;;8.13;100.00
70544;BME280;58097;48.364;-1.224;2024-02-26T03:13:38;96814.81;;;8.12;100.00
70544;BME280;58097;48.364;-1.224;2024-02-26T03:16:06;96823.06;;;8.12;100.00
70544;BME280;58097;48.364;-1.224;2024-02-26T03:18:32;96828.56;;;8.12;100.00
70544;BME280;58097;48.364;-1.224;2024-02-26T03:20:57;96819.47;;;8.12;100.00
70544;BME280;58097;48.364;-1.224;2024-02-26T03:23:23;96816.72;;;8.12;100.00
70544;BME280;58097;48.364;-1.224;2024-02-26T03:25:48;96820.53;;;8.11;100.00
70544;BME280;58097;48.364;-1.224;2024-02-26T03:28:14;96833.00;;;8.13;100.00
70544;BME280;58097;48.364;-1.224;2024-02-26T03:30:39;96837.41;;;8.14;100.00
70544;BME280;58097;48.364;-1.224;2024-02-26T03:33:04;96841.00;;;8.15;100.00
70544;BME280;58097;48.364;-1.224;2024-02-26T03:35:30;96842.69;;;8.16;100.00
70544;BME280;58097;48.364;-1.224;2024-02-26T03:37:55;96841.84;;;8.15;100.00
70544;BME280;58097;48.364;-1.224;2024-02-26T03:40:20;96850.72;;;8.17;100.00
70544;BME280;58097;48.364;-1.224;2024-02-26T03:42:46;96845.22;;;8.17;100.00
70544;BME280;58097;48.364;-1.224;2024-02-26T03:45:11;96849.66;;;8.18;100.00
70544;BME280;58097;48.364;-1.224;2024-02-26T03:47:38;96857.69;;;8.20;100.00
70544;BME280;58097;48.364;-1.224;2024-02-26T03:50:05;96858.53;;;8.20;100.00
70544;BME280;58097;48.364;-1.224;2024-02-26T03:52:31;96859.16;;;8.22;100.00
70544;BME280;58097;48.364;-1.224;2024-02-26T03:54:57;96854.72;;;8.21;100.00
70544;BME280;58097;48.364;-1.224;2024-02-26T03:57:22;96862.13;;;8.21;100.00
70544;BME280;58097;48.364;-1.224;2024-02-26T03:59:47;96861.28;;;8.20;100.00
70544;BME280;58097;48.364;-1.224;2024-02-26T04:02:13;96868.69;;;8.20;100.00
70544;BME280;58097;48.364;-1.224;2024-02-26T04:04:38;96873.34;;;8.19;100.00
70544;BME280;58097;48.364;-1.224;2024-02-26T04:07:03;96878.63;;;8.21;100.00
70544;BME280;58097;48.364;-1.224;2024-02-26T04:09:31;96873.13;;;8.21;100.00
70544;BME280;58097;48.364;-1.224;2024-02-26T04:11:56;96876.72;;;8.21;100.00
70544;BME280;58097;48.364;-1.224;2024-02-26T04:14:22;96888.34;;;8.23;100.00
70544;BME280;58097;48.364;-1.224;2024-02-26T04:16:47;96890.88;;;8.25;100.00
70544;BME280;58097;48.364;-1.224;2024-02-26T04:19:16;96888.53;;;8.28;100.00
70544;BME280;58097;48.364;-1.224;2024-02-26T04:21:42;96895.72;;;8.29;100.00
70544;BME280;58097;48.364;-1.224;2024-02-26T04:24:07;96895.53;;;8.24;100.00
70544;BME280;58097;48.364;-1.224;2024-02-26T04:26:32;96904.00;;;8.23;100.00
70544;BME280;58097;48.364;-1.224;2024-02-26T04:28:58;96917.53;;;8.24;100.00
70544;BME280;58097;48.364;-1.224;2024-02-26T04:31:23;96909.28;;;8.24;100.00
70544;BME280;58097;48.364;-1.224;2024-02-26T04:33:49;96917.09;;;8.27;100.00
70544;BME280;58097;48.364;-1.224;2024-02-26T04:36:14;96923.88;;;8.25;100.00
70544;BME280;58097;48.364;-1.224;2024-02-26T04:38:43;96924.09;;;8.23;100.00
70544;BME280;58097;48.364;-1.224;2024-02-26T04:41:09;96930.44;;;8.24;100.00
70544;BME280;58097;48.364;-1.224;2024-02-26T04:43:35;96927.69;;;8.24;100.00
70544;BME280;58097;48.364;-1.224;2024-02-26T04:46:06;96935.09;;;8.23;100.00
70544;BME280;58097;48.364;-1.224;2024-02-26T04:48:32;96936.56;;;8.26;100.00
70544;BME280;58097;48.364;-1.224;2024-02-26T04:50:57;96938.47;;;8.25;100.00
70544;BME280;58097;48.364;-1.224;2024-02-26T04:53:22;96946.50;;;8.27;100.00
70544;BME280;58097;48.364;-1.224;2024-02-26T04:55:48;96960.28;;;8.27;100.00
70544;BME280;58097;48.364;-1.224;2024-02-26T04:58:13;96961.09;;;8.27;100.00
70544;BME280;58097;48.364;-1.224;2024-02-26T05:00:38;96965.78;;;8.27;100.00
70544;BME280;58097;48.364;-1.224;2024-02-26T05:03:04;96973.81;;;8.28;100.00
70544;BME280;58097;48.364;-1.224;2024-02-26T05:05:29;96968.09;;;8.30;100.00
70544;BME280;58097;48.364;-1.224;2024-02-26T05:07:54;96979.09;;;8.30;100.00
70544;BME280;58097;48.364;-1.224;2024-02-26T05:10:20;96989.88;;;8.31;100.00
70544;BME280;58097;48.364;-1.224;2024-02-26T05:12:45;96995.38;;;8.31;100.00
70544;BME280;58097;48.364;-1.224;2024-02-26T05:15:10;96996.44;;;8.30;100.00
70544;BME280;58097;48.364;-1.224;2024-02-26T05:17:36;97000.88;;;8.31;100.00
70544;BME280;58097;48.364;-1.224;2024-02-26T05:20:01;97006.38;;;8.31;100.00
70544;BME280;58097;48.364;-1.224;2024-02-26T05:22:27;97005.13;;;8.27;100.00
70544;BME280;58097;48.364;-1.224;2024-02-26T05:24:52;97013.19;;;8.22;100.00
70544;BME280;58097;48.364;-1.224;2024-02-26T05:27:19;97022.72;;;8.20;100.00
70544;BME280;58097;48.364;-1.224;2024-02-26T05:29:44;97031.00;;;8.13;100.00
70544;BME280;58097;48.364;-1.224;2024-02-26T05:32:09;97036.72;;;8.12;100.00
70544;BME280;58097;48.364;-1.224;2024-02-26T05:34:35;97039.03;;;8.08;100.00
70544;BME280;58097;48.364;-1.224;2024-02-26T05:37:00;97048.78;;;8.04;100.00
70544;BME280;58097;48.364;-1.224;2024-02-26T05:39:25;97053.66;;;8.02;100.00
70544;BME280;58097;48.364;-1.224;2024-02-26T05:41:51;97056.63;;;7.94;100.00
70544;BME280;58097;48.364;-1.224;2024-02-26T05:44:16;97064.88;;;7.94;100.00
70544;BME280;58097;48.364;-1.224;2024-02-26T05:46:41;97070.19;;;7.89;100.00
70544;BME280;58097;48.364;-1.224;2024-02-26T05:49:07;97080.13;;;7.90;100.00
70544;BME280;58097;48.364;-1.224;2024-02-26T05:51:32;97091.97;;;7.84;100.00
70544;BME280;58097;48.364;-1.224;2024-02-26T05:53:58;97092.41;;;7.81;100.00
70544;BME280;58097;48.364;-1.224;2024-02-26T05:56:23;97104.22;;;7.81;100.00
70544;BME280;58097;48.364;-1.224;2024-02-26T05:58:49;97117.78;;;7.83;100.00
70544;BME280;58097;48.364;-1.224;2024-02-26T06:01:17;97114.38;;;7.81;100.00
70544;BME280;58097;48.364;-1.224;2024-02-26T06:03:43;97123.03;;;7.77;100.00
70544;BME280;58097;48.364;-1.224;2024-02-26T06:06:08;97131.69;;;7.74;100.00
70544;BME280;58097;48.364;-1.224;2024-02-26T06:08:33;97137.19;;;7.74;100.00
70544;BME280;58097;48.364;-1.224;2024-02-26T06:10:59;97141.84;;;7.67;100.00
70544;BME280;58097;48.364;-1.224;2024-02-26T06:13:24;97147.56;;;7.66;100.00
70544;BME280;58097;48.364;-1.224;2024-02-26T06:15:49;97152.22;;;7.65;100.00
70544;BME280;58097;48.364;-1.224;2024-02-26T06:18:15;97156.22;;;7.69;100.00
70544;BME280;58097;48.364;-1.224;2024-02-26T06:20:41;97169.34;;;7.67;100.00
70544;BME280;58097;48.364;-1.224;2024-02-26T06:23:06;97173.78;;;7.68;100.00
70544;BME280;58097;48.364;-1.224;2024-02-26T06:25:32;97178.44;;;7.61;100.00
70544;BME280;58097;48.364;-1.224;2024-02-26T06:27:57;97182.66;;;7.64;100.00
70544;BME280;58097;48.364;-1.224;2024-02-26T06:30:22;97182.66;;;7.64;100.00
70544;BME280;58097;48.364;-1.224;2024-02-26T06:32:48;97196.59;;;7.62;100.00
70544;BME280;58097;48.364;-1.224;2024-02-26T06:35:13;97203.78;;;7.63;100.00
70544;BME280;58097;48.364;-1.224;2024-02-26T06:37:38;97212.69;;;7.65;100.00
70544;BME280;58097;48.364;-1.224;2024-02-26T06:40:04;97218.59;;;7.62;100.00
70544;BME280;58097;48.364;-1.224;2024-02-26T06:42:31;97232.34;;;7.62;100.00
70544;BME280;58097;48.364;-1.224;2024-02-26T06:44:57;97237.59;;;7.57;100.00
70544;BME280;58097;48.364;-1.224;2024-02-26T06:47:23;97247.97;;;7.55;100.00
70544;BME280;58097;48.364;-1.224;2024-02-26T06:49:48;97251.34;;;7.57;100.00
70544;BME280;58097;48.364;-1.224;2024-02-26T06:52:13;97257.47;;;7.53;100.00
70544;BME280;58097;48.364;-1.224;2024-02-26T06:54:39;97266.94;;;7.50;100.00
70544;BME280;58097;48.364;-1.224;2024-02-26T06:57:04;97276.88;;;7.44;100.00
70544;BME280;58097;48.364;-1.224;2024-02-26T06:59:29;97280.47;;;7.45;100.00
70544;BME280;58097;48.364;-1.224;2024-02-26T07:01:55;97288.28;;;7.41;100.00
70544;BME280;58097;48.364;-1.224;2024-02-26T07:04:20;97293.75;;;7.41;100.00
70544;BME280;58097;48.364;-1.224;2024-02-26T07:06:46;97304.53;;;7.43;100.00
70544;BME280;58097;48.364;-1.224;2024-02-26T07:09:12;97310.69;;;7.45;100.00
70544;BME280;58097;48.364;-1.224;2024-02-26T07:11:38;97327.81;;;7.47;100.00
70544;BME280;58097;48.364;-1.224;2024-02-26T07:14:04;97325.25;;;7.45;100.00
70544;BME280;58097;48.364;-1.224;2024-02-26T07:16:30;97339.66;;;7.47;100.00
70544;BME280;58097;48.364;-1.224;2024-02-26T07:18:55;97336.06;;;7.47;100.00
70544;BME280;58097;48.364;-1.224;2024-02-26T07:21:21;97353.78;;;7.44;100.00
70544;BME280;58097;48.364;-1.224;2024-02-26T07:23:46;97351.91;;;7.45;100.00
70544;BME280;58097;48.364;-1.224;2024-02-26T07:26:11;97352.09;;;7.43;100.00
70544;BME280;58097;48.364;-1.224;2024-02-26T07:28:37;97360.97;;;7.39;100.00
70544;BME280;58097;48.364;-1.224;2024-02-26T07:31:03;97365.81;;;7.37;100.00
70544;BME280;58097;48.364;-1.224;2024-02-26T07:33:28;97377.19;;;7.34;100.00
70544;BME280;58097;48.364;-1.224;2024-02-26T07:35:54;97390.94;;;7.34;100.00
70544;BME280;58097;48.364;-1.224;2024-02-26T07:38:19;97397.50;;;7.33;100.00
70544;BME280;58097;48.364;-1.224;2024-02-26T07:40:44;97402.13;;;7.32;100.00
70544;BME280;58097;48.364;-1.224;2024-02-26T07:43:10;97412.28;;;7.32;100.00
70544;BME280;58097;48.364;-1.224;2024-02-26T07:45:35;97421.16;;;7.34;100.00
70544;BME280;58097;48.364;-1.224;2024-02-26T07:48:02;97428.97;;;7.30;100.00
70544;BME280;58097;48.364;-1.224;2024-02-26T07:50:27;97439.09;;;7.30;100.00
70544;BME280;58097;48.364;-1.224;2024-02-26T07:52:52;97449.69;;;7.33;100.00
70544;BME280;58097;48.364;-1.224;2024-02-26T07:55:18;97452.38;;;7.26;100.00
70544;BME280;58097;48.364;-1.224;2024-02-26T07:57:44;97457.88;;;7.26;100.00
70544;BME280;58097;48.364;-1.224;2024-02-26T08:00:10;97459.97;;;7.24;100.00
70544;BME280;58097;48.364;-1.224;2024-02-26T08:02:36;97484.41;;;7.19;100.00
70544;BME280;58097;48.364;-1.224;2024-02-26T08:05:02;97483.38;;;7.20;100.00
70544;BME280;58097;48.364;-1.224;2024-02-26T08:07:27;97497.31;;;7.19;100.00
70544;BME280;58097;48.364;-1.224;2024-02-26T08:09:53;97512.75;;;7.20;100.00
70544;BME280;58097;48.364;-1.224;2024-02-26T08:12:19;97518.63;;;7.17;100.00
70544;BME280;58097;48.364;-1.224;2024-02-26T08:14:44;97521.19;;;7.18;100.00
70544;BME280;58097;48.364;-1.224;2024-02-26T08:17:10;97523.28;;;7.16;100.00
70544;BME280;58097;48.364;-1.224;2024-02-26T08:19:35;97528.75;;;7.16;100.00
70544;BME280;58097;48.364;-1.224;2024-02-26T08:22:02;97546.94;;;7.17;100.00
70544;BME280;58097;48.364;-1.224;2024-02-26T08:24:28;97555.84;;;7.19;100.00
70544;BME280;58097;48.364;-1.224;2024-02-26T08:26:53;97563.22;;;7.19;100.00
70544;BME280;58097;48.364;-1.224;2024-02-26T08:29:19;97577.59;;;7.21;100.00
70544;BME280;58097;48.364;-1.224;2024-02-26T08:31:44;97586.03;;;7.19;100.00
70544;BME280;58097;48.364;-1.224;2024-02-26T08:34:09;97588.34;;;7.15;100.00
70544;BME280;58097;48.364;-1.224;2024-02-26T08:36:34;97595.06;;;7.13;100.00
70544;BME280;58097;48.364;-1.224;2024-02-26T08:39:00;97600.75;;;7.11;100.00
70544;BME280;58097;48.364;-1.224;2024-02-26T08:41:25;97619.53;;;7.08;100.00
70544;BME280;58097;48.364;-1.224;2024-02-26T08:43:51;97628.34;;;7.03;100.00
70544;BME280;58097;48.364;-1.224;2024-02-26T08:46:16;97619.22;;;6.96;100.00
70544;BME280;58097;48.364;-1.224;2024-02-26T08:48:41;97625.06;;;6.93;100.00
70544;BME280;58097;48.364;-1.224;2024-02-26T08:51:07;97638.13;;;6.91;100.00
70544;BME280;58097;48.364;-1.224;2024-02-26T08:53:33;97662.84;;;6.91;100.00
70544;BME280;58097;48.364;-1.224;2024-02-26T08:55:59;97660.88;;;6.85;100.00
70544;BME280;58097;48.364;-1.224;2024-02-26T08:58:24;97655.66;;;6.90;100.00
70544;BME280;58097;48.364;-1.224;2024-02-26T09:00:49;97678.66;;;6.89;100.00
70544;BME280;58097;48.364;-1.224;2024-02-26T09:03:14;97673.16;;;6.89;100.00
70544;BME280;58097;48.364;-1.224;2024-02-26T09:05:39;97689.63;;;6.89;100.00
70544;BME280;58097;48.364;-1.224;2024-02-26T09:08:05;97693.22;;;6.90;100.00
70544;BME280;58097;48.364;-1.224;2024-02-26T09:10:30;97706.03;;;6.97;100.00
70544;BME280;58097;48.364;-1.224;2024-02-26T09:12:57;97706.69;;;6.99;100.00
70544;BME280;58097;48.364;-1.224;2024-02-26T09:15:22;97701.38;;;6.98;100.00
70544;BME280;58097;48.364;-1.224;2024-02-26T09:17:47;97718.72;;;6.98;100.00
70544;BME280;58097;48.364;-1.224;2024-02-26T09:20:15;97721.91;;;7.02;100.00
70544;BME280;58097;48.364;-1.224;2024-02-26T09:22:41;97735.84;;;7.00;100.00
70544;BME280;58097;48.364;-1.224;2024-02-26T09:25:07;97740.28;;;7.01;100.00
70544;BME280;58097;48.364;-1.224;2024-02-26T09:27:32;97743.31;;;7.06;100.00
70544;BME280;58097;48.364;-1.224;2024-02-26T09:29:58;97753.72;;;7.11;100.00
70544;BME280;58097;48.364;-1.224;2024-02-26T09:32:23;97763.47;;;7.13;100.00
70544;BME280;58097;48.364;-1.224;2024-02-26T09:34:49;97772.75;;;7.12;100.00
70544;BME280;58097;48.364;-1.224;2024-02-26T09:37:15;97759.78;;;7.06;100.00
70544;BME280;58097;48.364;-1.224;2024-02-26T09:39:40;97758.47;;;7.02;100.00
70544;BME280;58097;48.364;-1.224;2024-02-26T09:42:05;97775.41;;;7.06;100.00
70544;BME280;58097;48.364;-1.224;2024-02-26T09:44:34;97781.56;;;7.08;100.00
70544;BME280;58097;48.364;-1.224;2024-02-26T09:47:03;97788.09;;;7.07;100.00
70544;BME280;58097;48.364;-1.224;2024-02-26T09:49:30;97790.84;;;7.07;100.00
70544;BME280;58097;48.364;-1.224;2024-02-26T09:51:55;97803.34;;;7.09;100.00
70544;BME280;58097;48.364;-1.224;2024-02-26T09:54:23;97821.63;;;7.02;100.00
70544;BME280;58097;48.364;-1.224;2024-02-26T09:56:51;97813.56;;;7.01;100.00
70544;BME280;58097;48.364;-1.224;2024-02-26T09:59:20;97817.19;;;7.01;100.00
70544;BME280;58097;48.364;-1.224;2024-02-26T10:01:45;97832.13;;;6.99;100.00
70544;BME280;58097;48.364;-1.224;2024-02-26T10:04:11;97832.81;;;7.01;100.00
70544;BME280;58097;48.364;-1.224;2024-02-26T10:06:37;97834.13;;;7.05;100.00
70544;BME280;58097;48.364;-1.224;2024-02-26T10:09:03;97846.81;;;7.06;100.00
70544;BME280;58097;48.364;-1.224;2024-02-26T10:11:31;97847.00;;;7.04;100.00
70544;BME280;58097;48.364;-1.224;2024-02-26T10:13:57;97854.00;;;7.07;100.00
70544;BME280;58097;48.364;-1.224;2024-02-26T10:16:22;97859.97;;;7.10;100.00
70544;BME280;58097;48.364;-1.224;2024-02-26T10:18:49;97876.44;;;7.10;100.00
70544;BME280;58097;48.364;-1.224;2024-02-26T10:21:21;97871.63;;;7.12;100.00
70544;BME280;58097;48.364;-1.224;2024-02-26T10:23:47;97880.03;;;7.11;100.00
70544;BME280;58097;48.364;-1.224;2024-02-26T10:26:14;97890.00;;;7.12;100.00
70544;BME280;58097;48.364;-1.224;2024-02-26T10:28:42;97894.63;;;7.11;100.00
70544;BME280;58097;48.364;-1.224;2024-02-26T10:31:09;97909.22;;;7.12;100.00
70544;BME280;58097;48.364;-1.224;2024-02-26T10:33:38;97917.25;;;7.13;100.00
70544;BME280;58097;48.364;-1.224;2024-02-26T10:36:04;97926.16;;;7.15;100.00
70544;BME280;58097;48.364;-1.224;2024-02-26T10:38:31;97926.84;;;7.18;100.00
70544;BME280;58097;48.364;-1.224;2024-02-26T10:40:57;97931.28;;;7.19;100.00
70544;BME280;58097;48.364;-1.224;2024-02-26T10:43:22;97945.69;;;7.21;100.00
70544;BME280;58097;48.364;-1.224;2024-02-26T10:45:48;97956.22;;;7.32;100.00
70544;BME280;58097;48.364;-1.224;2024-02-26T10:48:14;97969.09;;;7.31;100.00
70544;BME280;58097;48.364;-1.224;2024-02-26T10:50:40;97978.00;;;7.33;100.00
70544;BME280;58097;48.364;-1.224;2024-02-26T10:53:13;97975.16;;;7.27;100.00
70544;BME280;58097;48.364;-1.224;2024-02-26T10:55:41;97985.50;;;7.25;100.00
70544;BME280;58097;48.364;-1.224;2024-02-26T10:58:07;97993.19;;;7.29;100.00
70544;BME280;58097;48.364;-1.224;2024-02-26T11:00:33;97997.81;;;7.29;100.00
70544;BME280;58097;48.364;-1.224;2024-02-26T11:03:00;98003.69;;;7.26;100.00
70544;BME280;58097;48.364;-1.224;2024-02-26T11:05:28;98014.69;;;7.26;100.00
70544;BME280;58097;48.364;-1.224;2024-02-26T11:07:54;98021.94;;;7.19;100.00
70544;BME280;58097;48.364;-1.224;2024-02-26T11:10:21;98013.03;;;7.17;100.00
70544;BME280;58097;48.364;-1.224;2024-02-26T11:12:47;98015.47;;;7.11;100.00
70544;BME280;58097;48.364;-1.224;2024-02-26T11:15:15;98025.44;;;7.12;100.00
70544;BME280;58097;48.364;-1.224;2024-02-26T11:17:42;98030.16;;;7.04;100.00
70544;BME280;58097;48.364;-1.224;2024-02-26T11:20:10;98037.25;;;7.13;100.00
70544;BME280;58097;48.364;-1.224;2024-02-26T11:22:38;98033.66;;;7.12;100.00
70544;BME280;58097;48.364;-1.224;2024-02-26T11:25:03;98048.06;;;7.14;100.00
70544;BME280;58097;48.364;-1.224;2024-02-26T11:27:36;98040.19;;;7.11;100.00
70544;BME280;58097;48.364;-1.224;2024-02-26T11:30:05;98050.44;;;7.18;100.00
70544;BME280;58097;48.364;-1.224;2024-02-26T11:32:33;98048.16;;;7.21;100.00
70544;BME280;58097;48.364;-1.224;2024-02-26T11:35:00;98051.09;;;7.20;100.00
70544;BME280;58097;48.364;-1.224;2024-02-26T11:37:26;98063.09;;;7.27;100.00
70544;BME280;58097;48.364;-1.224;2024-02-26T11:39:52;98075.88;;;7.34;100.00
70544;BME280;58097;48.364;-1.224;2024-02-26T11:42:23;98080.25;;;7.43;100.00
70544;BME280;58097;48.364;-1.224;2024-02-26T11:44:48;98082.63;;;7.46;100.00
70544;BME280;58097;48.364;-1.224;2024-02-26T11:47:18;98086.41;;;7.45;100.00
70544;BME280;58097;48.364;-1.224;2024-02-26T11:49:44;98092.47;;;7.41;100.00
70544;BME280;58097;48.364;-1.224;2024-02-26T11:52:10;98109.03;;;7.33;100.00
70544;BME280;58097;48.364;-1.224;2024-02-26T11:54:55;98109.78;;;7.27;100.00
70544;BME280;58097;48.364;-1.224;2024-02-26T11:57:39;98116.84;;;7.21;100.00
70544;BME280;58097;48.364;-1.224;2024-02-26T12:00:13;98124.97;;;7.14;100.00
70544;BME280;58097;48.364;-1.224;2024-02-26T12:02:45;98132.53;;;7.12;100.00
70544;BME280;58097;48.364;-1.224;2024-02-26T12:05:16;98135.84;;;7.08;100.00
70544;BME280;58097;48.364;-1.224;2024-02-26T12:07:47;98140.00;;;7.04;100.00
70544;BME280;58097;48.364;-1.224;2024-02-26T12:10:25;98160.44;;;7.01;100.00
70544;BME280;58097;48.364;-1.224;2024-02-26T12:15:22;98159.91;;;7.06;100.00
70544;BME280;58097;48.364;-1.224;2024-02-26T12:17:52;98163.69;;;7.05;100.00
70544;BME280;58097;48.364;-1.224;2024-02-26T12:20:18;98159.72;;;7.07;100.00
70544;BME280;58097;48.364;-1.224;2024-02-26T12:22:45;98158.13;;;7.13;100.00
70544;BME280;58097;48.364;-1.224;2024-02-26T12:25:16;98184.38;;;7.15;100.00
70544;BME280;58097;48.364;-1.224;2024-02-26T12:27:41;98182.09;;;7.19;100.00
70544;BME280;58097;48.364;-1.224;2024-02-26T12:30:07;98181.06;;;7.20;100.00
70544;BME280;58097;48.364;-1.224;2024-02-26T12:32:33;98176.25;;;7.22;100.00
70544;BME280;58097;48.364;-1.224;2024-02-26T12:34:59;98172.66;;;7.22;100.00
70544;BME280;58097;48.364;-1.224;2024-02-26T12:37:26;98196.50;;;7.21;100.00
70544;BME280;58097;48.364;-1.224;2024-02-26T12:39:52;98209.75;;;7.18;100.00
70544;BME280;58097;48.364;-1.224;2024-02-26T12:42:17;98222.66;;;7.17;100.00
70544;BME280;58097;48.364;-1.224;2024-02-26T12:44:47;98215.06;;;7.19;100.00
70544;BME280;58097;48.364;-1.224;2024-02-26T12:47:13;98219.72;;;7.19;100.00